Terminal Aerodrome Forecast
Issued by NWS

Home | Current Version | Previous Version | Text Only | Print | Product List | Glossary On
Versions: 1 2 3 4 5 6 7 8 9 10 11 12 13 14 15 16
000
FTUS44 KTSA 260500
TAFRVS
TAF
KRVS 260520Z 2606/2706 18003KT P6SM SKC
      TEMPO 2608/2612 3SM BR
     FM261400 18007KT P6SM SKC
     FM261700 19013G22KT P6SM SKC
     FM270000 17010KT P6SM SKC=

USA.gov is the U.S. government's official web portal to all federal, state and local government web resources and services.